createdAt,value
2018-06-13T00:01:56.958Z,3.90
2018-06-13T00:04:25.033Z,4.50
2018-06-13T00:06:53.133Z,4.17
2018-06-13T00:09:21.236Z,4.30
2018-06-13T00:11:49.400Z,3.37
2018-06-13T00:14:17.489Z,4.53
2018-06-13T00:16:46.176Z,4.03
2018-06-13T00:19:14.259Z,4.60
2018-06-13T00:21:42.348Z,5.00
2018-06-13T00:24:10.441Z,4.83
2018-06-13T00:26:38.559Z,4.97
2018-06-13T00:29:06.649Z,4.43
2018-06-13T00:31:34.740Z,4.80
2018-06-13T00:34:02.834Z,4.67
2018-06-13T00:36:30.908Z,4.30
2018-06-13T00:38:58.988Z,4.00
2018-06-13T00:41:27.090Z,3.93
2018-06-13T00:43:55.186Z,3.70
2018-06-13T00:46:23.293Z,4.27
2018-06-13T00:48:51.389Z,4.20
2018-06-13T00:51:19.506Z,4.07
2018-06-13T00:53:47.660Z,4.13
2018-06-13T00:56:27.339Z,4.83
2018-06-13T00:58:55.518Z,4.43
2018-06-13T01:01:23.649Z,4.50
2018-06-13T01:03:51.775Z,4.30
2018-06-13T01:06:19.896Z,4.10
2018-06-13T01:08:48.008Z,4.40
2018-06-13T01:11:16.127Z,4.50
2018-06-13T01:13:44.256Z,4.53
2018-06-13T01:16:12.421Z,4.10
2018-06-13T01:18:40.567Z,4.30
2018-06-13T01:21:08.699Z,4.70
2018-06-13T01:23:36.821Z,4.07
2018-06-13T01:26:04.988Z,5.30
2018-06-13T01:28:33.121Z,3.77
2018-06-13T01:31:01.267Z,4.47
2018-06-13T01:33:29.435Z,4.57
2018-06-13T01:35:57.496Z,4.47
2018-06-13T01:38:25.637Z,5.03
2018-06-13T01:40:53.807Z,4.30
2018-06-13T01:43:21.698Z,4.40
2018-06-13T01:45:49.884Z,4.03
2018-06-13T01:48:18.004Z,4.50
2018-06-13T01:50:55.006Z,5.00
2018-06-13T01:53:23.300Z,4.20
2018-06-13T01:55:51.458Z,3.90
2018-06-13T03:20:18.176Z,3.70
2018-06-13T03:22:46.283Z,3.90
2018-06-13T03:25:14.400Z,4.17
2018-06-13T03:27:42.499Z,4.77
2018-06-13T03:30:10.628Z,3.97
2018-06-13T03:32:38.854Z,4.33
2018-06-13T03:35:06.971Z,4.47
2018-06-13T03:37:35.087Z,4.30
2018-06-13T03:40:03.208Z,4.10
2018-06-13T03:42:31.314Z,5.00
2018-06-13T03:44:59.427Z,5.03
2018-06-13T03:47:27.651Z,4.93
2018-06-13T03:49:55.762Z,4.17
2018-06-13T03:52:23.887Z,4.50
2018-06-13T03:54:52.003Z,4.50
2018-06-13T03:57:20.122Z,4.20
2018-06-13T03:59:48.243Z,4.60
2018-06-13T04:02:16.371Z,5.20
2018-06-13T04:04:44.479Z,6.43
2018-06-13T04:07:12.670Z,4.63
2018-06-13T04:09:40.755Z,5.93
2018-06-13T04:12:08.965Z,4.57
2018-06-13T04:14:37.045Z,4.83
2018-06-13T04:17:05.354Z,5.97
2018-06-13T04:19:33.430Z,7.13
2018-06-13T04:22:01.503Z,6.93
2018-06-13T04:24:29.588Z,6.50
2018-06-13T04:26:57.681Z,7.03
2018-06-13T04:29:25.758Z,7.37
2018-06-13T04:31:53.851Z,6.87
2018-06-13T04:34:21.945Z,7.00
2018-06-13T04:36:50.094Z,7.53
2018-06-13T04:39:18.187Z,6.20
2018-06-13T04:41:46.266Z,6.37
2018-06-13T04:44:14.343Z,6.57
2018-06-13T04:46:42.426Z,6.13
2018-06-13T04:49:10.523Z,5.53
2018-06-13T04:51:38.612Z,5.90
2018-06-13T04:54:06.733Z,5.20
2018-06-13T04:56:34.843Z,5.73
2018-06-13T04:59:02.987Z,4.83
2018-06-13T05:01:31.068Z,4.70
2018-06-13T05:03:59.154Z,4.00
2018-06-13T05:06:27.255Z,3.90
2018-06-13T05:08:55.181Z,4.47
2018-06-13T05:11:23.302Z,4.17
2018-06-13T05:13:51.397Z,3.30
2018-06-13T05:16:19.531Z,3.40
2018-06-13T05:18:47.614Z,2.43
2018-06-13T05:21:15.692Z,2.20
2018-06-13T05:23:43.772Z,2.57
2018-06-13T05:26:11.872Z,2.10
2018-06-13T05:28:40.008Z,2.93
2018-06-13T05:31:08.063Z,2.47
2018-06-13T05:33:36.189Z,2.70
2018-06-13T05:36:04.364Z,3.07
2018-06-13T05:38:32.480Z,3.50
2018-06-13T05:41:00.552Z,4.90
2018-06-13T05:43:28.665Z,5.27
2018-06-13T05:45:56.777Z,5.83
2018-06-13T05:48:24.854Z,5.83
2018-06-13T05:50:52.935Z,5.30
2018-06-13T05:53:21.030Z,5.77
2018-06-13T05:55:49.118Z,7.37
2018-06-13T05:58:17.229Z,5.07
2018-06-13T06:00:45.312Z,5.03
2018-06-13T06:03:13.504Z,4.10
2018-06-13T06:05:41.602Z,3.50
2018-06-13T06:08:09.678Z,4.30
2018-06-13T06:10:37.777Z,3.83
2018-06-13T06:13:05.863Z,4.00
2018-06-13T06:15:33.938Z,2.80
2018-06-13T06:18:02.055Z,3.00
2018-06-13T06:20:30.143Z,2.77
2018-06-13T06:22:58.226Z,3.63
2018-06-13T06:25:26.319Z,2.90
2018-06-13T06:27:54.403Z,3.40
2018-06-13T06:30:22.501Z,2.40
2018-06-13T06:32:50.683Z,2.70
2018-06-13T06:35:18.774Z,3.47
2018-06-13T06:37:46.855Z,2.13
2018-06-13T06:40:14.811Z,2.83
2018-06-13T06:42:43.115Z,2.20
2018-06-13T06:45:10.995Z,2.77
2018-06-13T06:47:39.076Z,2.17
2018-06-13T06:50:07.149Z,3.40
2018-06-13T06:52:35.255Z,2.70
2018-06-13T06:55:03.352Z,2.67
2018-06-13T06:57:31.439Z,2.70
2018-06-13T06:59:59.532Z,2.47
2018-06-13T07:02:27.606Z,2.60
2018-06-13T07:04:55.688Z,2.10
2018-06-13T07:07:23.775Z,2.40
2018-06-13T07:09:51.860Z,2.37
2018-06-13T07:12:19.957Z,2.20
2018-06-13T07:14:48.086Z,2.67
2018-06-13T07:17:16.198Z,2.13
2018-06-13T07:19:44.318Z,2.57
2018-06-13T07:22:12.442Z,4.43
2018-06-13T07:24:40.562Z,2.73
2018-06-13T07:27:08.680Z,2.77
2018-06-13T07:29:36.790Z,2.73
2018-06-13T07:32:04.905Z,2.33
2018-06-13T07:34:33.002Z,2.33
2018-06-13T07:37:01.127Z,1.83
2018-06-13T07:39:29.286Z,2.17
2018-06-13T07:41:57.406Z,1.90
2018-06-13T07:44:25.524Z,2.80
2018-06-13T07:46:53.641Z,4.50
2018-06-13T07:49:21.767Z,4.87
2018-06-13T07:51:49.884Z,4.03
2018-06-13T07:54:18.050Z,6.60
2018-06-13T07:56:46.883Z,6.10
2018-06-13T07:59:14.991Z,5.00
2018-06-13T08:01:43.100Z,3.53
2018-06-13T08:04:11.194Z,3.40
2018-06-13T08:06:39.294Z,5.77
2018-06-13T08:09:07.876Z,6.00
2018-06-13T08:11:36.114Z,4.03
2018-06-13T08:14:04.254Z,4.80
2018-06-13T08:16:32.332Z,3.30
2018-06-13T08:19:00.432Z,4.47
2018-06-13T08:21:28.504Z,4.27
2018-06-13T08:23:56.604Z,4.20
2018-06-13T08:26:24.727Z,3.93
2018-06-13T08:28:52.851Z,5.00
2018-06-13T08:31:20.935Z,3.73
2018-06-13T08:33:49.078Z,5.20
2018-06-13T08:36:17.131Z,5.30
2018-06-13T08:38:45.214Z,4.40
2018-06-13T08:41:13.312Z,4.30
2018-06-13T08:43:41.402Z,4.10
2018-06-13T08:46:09.487Z,4.60
2018-06-13T08:48:37.591Z,3.77
2018-06-13T08:51:05.691Z,3.70
2018-06-13T08:53:33.787Z,3.47
2018-06-13T08:56:01.871Z,3.10
2018-06-13T08:58:29.986Z,3.27
2018-06-13T09:00:57.885Z,3.10
2018-06-13T09:03:25.976Z,3.50
2018-06-13T09:05:54.037Z,2.50
2018-06-13T09:08:22.147Z,3.47
2018-06-13T09:10:50.230Z,2.93
2018-06-13T09:13:18.330Z,3.37
2018-06-13T09:15:46.441Z,2.77
2018-06-13T09:18:14.557Z,3.27
2018-06-13T09:20:42.674Z,3.20
2018-06-13T09:23:10.795Z,2.77
2018-06-13T09:25:38.911Z,2.60
2018-06-13T09:28:07.024Z,2.97
2018-06-13T09:30:35.131Z,3.17
2018-06-13T09:33:03.243Z,3.67
2018-06-13T09:35:31.471Z,2.63
2018-06-13T09:37:59.584Z,2.70
2018-06-13T09:40:27.751Z,4.50
2018-06-13T09:42:55.849Z,2.83
2018-06-13T09:45:23.965Z,3.20
2018-06-13T09:47:52.081Z,3.13
2018-06-13T09:50:20.210Z,3.17
2018-06-13T09:52:48.324Z,2.47
2018-06-13T09:55:16.465Z,2.57
2018-06-13T09:57:44.600Z,2.40
2018-06-13T10:00:18.259Z,4.30
2018-06-13T10:02:46.413Z,2.27
2018-06-13T10:05:14.534Z,2.50
2018-06-13T10:07:42.673Z,2.30
2018-06-13T10:10:10.799Z,2.27
2018-06-13T10:12:38.917Z,3.00
2018-06-13T10:15:07.039Z,2.47
2018-06-13T10:17:35.194Z,2.50
2018-06-13T10:20:03.307Z,3.20
2018-06-13T10:22:31.397Z,3.27
2018-06-13T10:24:59.489Z,3.17
2018-06-13T10:27:44.123Z,3.60
2018-06-13T10:30:12.202Z,3.70
2018-06-13T10:32:40.316Z,2.50
2018-06-13T10:35:10.341Z,2.43
2018-06-13T10:37:38.406Z,2.30
2018-06-13T10:40:06.904Z,2.30
2018-06-13T10:42:35.012Z,3.13
2018-06-13T10:45:03.068Z,3.60
2018-06-13T10:47:31.167Z,2.53
2018-06-13T10:49:59.252Z,2.70
2018-06-13T10:52:27.323Z,3.30
2018-06-13T10:54:55.459Z,3.10
2018-06-13T10:57:23.558Z,3.10
2018-06-13T10:59:51.626Z,2.90
2018-06-13T11:02:19.703Z,3.20
2018-06-13T11:04:47.841Z,3.10
2018-06-13T11:07:15.998Z,3.63
2018-06-13T11:09:44.080Z,3.10
2018-06-13T11:12:12.191Z,2.67
2018-06-13T11:14:40.277Z,3.63
2018-06-13T11:17:08.419Z,3.10
2018-06-13T11:19:36.554Z,2.90
2018-06-13T11:22:04.687Z,2.63
2018-06-13T11:24:32.807Z,2.80
2018-06-13T11:27:01.036Z,4.33
2018-06-13T11:29:29.214Z,2.73
2018-06-13T11:31:57.315Z,3.10
2018-06-13T11:34:25.435Z,3.77
2018-06-13T11:36:53.619Z,3.77
2018-06-13T11:39:21.754Z,3.53
2018-06-13T11:41:49.870Z,3.83
2018-06-13T11:44:17.985Z,4.20
2018-06-13T11:46:46.122Z,4.23
2018-06-13T11:49:14.284Z,4.00
2018-06-13T11:51:42.406Z,3.97
2018-06-13T11:54:10.543Z,3.93
2018-06-13T11:56:38.667Z,4.40
2018-06-13T11:59:06.778Z,4.30
2018-06-13T12:01:34.902Z,3.60
2018-06-13T12:04:03.016Z,3.60
2018-06-13T12:06:31.218Z,3.00
2018-06-13T12:08:59.330Z,3.03
2018-06-13T12:11:27.470Z,3.60
2018-06-13T12:13:55.600Z,3.60
2018-06-13T12:16:24.898Z,2.63
2018-06-13T12:18:53.253Z,3.33
2018-06-13T12:21:21.742Z,2.70
2018-06-13T12:23:50.074Z,2.63
2018-06-13T12:26:18.203Z,1.97
2018-06-13T12:28:46.307Z,1.70
2018-06-13T12:31:14.436Z,1.80
2018-06-13T12:33:42.554Z,1.80
2018-06-13T12:36:10.744Z,1.50
2018-06-13T12:38:38.859Z,1.57
2018-06-13T12:41:07.034Z,1.93
2018-06-13T12:43:35.145Z,2.20
2018-06-13T12:46:03.300Z,1.63
2018-06-13T12:48:31.436Z,1.93
2018-06-13T12:50:59.560Z,2.50
2018-06-13T12:53:27.677Z,1.70
2018-06-13T12:55:55.800Z,1.53
2018-06-13T12:58:23.914Z,2.43
2018-06-13T13:00:52.076Z,1.93
2018-06-13T13:03:20.285Z,2.27
2018-06-13T13:05:48.459Z,1.97
2018-06-13T13:08:16.566Z,1.70
2018-06-13T13:10:44.676Z,2.30
2018-06-13T13:13:12.947Z,2.50
2018-06-13T13:15:41.072Z,2.60
2018-06-13T13:18:09.267Z,1.87
2018-06-13T13:20:37.521Z,2.20
2018-06-13T13:23:05.706Z,1.80
2018-06-13T13:25:33.896Z,2.67
2018-06-13T13:28:02.085Z,2.03
2018-06-13T13:30:30.288Z,3.10
2018-06-13T13:32:58.394Z,2.30
2018-06-13T13:35:26.777Z,2.50
2018-06-13T13:37:54.905Z,2.10
2018-06-13T13:40:23.027Z,1.80
2018-06-13T13:42:51.148Z,2.50
2018-06-13T13:45:19.368Z,2.00
2018-06-13T13:47:47.524Z,2.37
2018-06-13T13:50:15.720Z,2.90
2018-06-13T13:52:43.839Z,2.30
2018-06-13T13:55:11.959Z,2.20
2018-06-13T13:57:40.072Z,2.00
2018-06-13T14:00:08.198Z,2.00
2018-06-13T14:02:36.295Z,2.53
2018-06-13T14:05:04.451Z,2.83
2018-06-13T14:07:32.660Z,2.10
2018-06-13T14:10:00.742Z,2.37
2018-06-13T14:12:28.854Z,2.27
2018-06-13T14:14:56.947Z,2.23
2018-06-13T14:17:25.026Z,3.23
2018-06-13T14:19:53.147Z,1.87
2018-06-13T14:22:21.289Z,1.97
2018-06-13T14:24:49.318Z,2.37
2018-06-13T14:27:17.394Z,2.10
2018-06-13T14:29:45.552Z,2.50
2018-06-13T14:32:13.640Z,2.23
2018-06-13T14:34:41.729Z,1.97
2018-06-13T14:37:09.812Z,2.20
2018-06-13T14:39:37.954Z,2.13
2018-06-13T14:42:06.078Z,2.70
2018-06-13T14:44:34.037Z,1.93
2018-06-13T14:47:02.799Z,2.33
2018-06-13T14:49:30.952Z,2.17
2018-06-13T14:51:59.034Z,2.40
2018-06-13T14:54:27.119Z,2.30
2018-06-13T14:56:55.228Z,2.33
2018-06-13T14:59:23.322Z,2.10
2018-06-13T15:01:51.429Z,2.40
2018-06-13T15:04:25.978Z,4.07
2018-06-13T15:06:54.075Z,3.00
2018-06-13T15:09:22.179Z,3.23
2018-06-13T15:11:50.271Z,2.60
2018-06-13T15:14:18.366Z,2.70
2018-06-13T15:16:46.486Z,2.67
2018-06-13T15:19:14.595Z,2.50
2018-06-13T15:21:42.711Z,2.47
2018-06-13T15:24:10.836Z,2.80
2018-06-13T15:26:38.946Z,3.00
2018-06-13T15:29:07.375Z,2.50
2018-06-13T15:31:35.482Z,2.27
2018-06-13T15:34:03.590Z,2.43
2018-06-13T15:36:31.714Z,2.83
2018-06-13T15:38:59.820Z,2.80
2018-06-13T15:41:28.317Z,2.70
2018-06-13T15:43:56.424Z,3.00
2018-06-13T15:46:24.570Z,2.20
2018-06-13T15:48:52.686Z,2.90
2018-06-13T15:51:20.786Z,2.37
2018-06-13T15:53:48.982Z,2.90
2018-06-13T15:56:17.072Z,2.53
2018-06-13T15:58:45.187Z,2.33
2018-06-13T16:01:13.328Z,2.90
2018-06-13T16:03:41.447Z,2.60
2018-06-13T16:06:09.559Z,2.50
2018-06-13T16:08:37.671Z,3.00
2018-06-13T16:11:05.814Z,3.27
2018-06-13T16:13:33.969Z,3.20
2018-06-13T16:16:02.087Z,2.40
2018-06-13T16:18:30.229Z,2.40
2018-06-13T16:20:58.346Z,2.57
2018-06-13T16:23:26.455Z,2.47
2018-06-13T16:25:54.566Z,2.67
2018-06-13T16:28:22.691Z,3.30
2018-06-13T16:30:50.862Z,3.00
2018-06-13T16:33:19.787Z,2.97
2018-06-13T16:35:47.951Z,3.27
2018-06-13T16:38:16.035Z,2.97
2018-06-13T16:40:44.155Z,3.20
2018-06-13T16:43:12.271Z,3.50
2018-06-13T16:45:40.390Z,3.20
2018-06-13T16:48:08.502Z,2.90
2018-06-13T16:50:47.758Z,2.60
2018-06-13T16:53:27.506Z,3.10
2018-06-13T16:55:55.629Z,3.50
2018-06-13T16:58:23.754Z,3.47
2018-06-13T17:00:51.861Z,2.40
2018-06-13T17:03:19.987Z,3.70
2018-06-13T17:05:48.099Z,2.97
2018-06-13T17:08:16.207Z,2.83
2018-06-13T17:10:44.314Z,3.43
2018-06-13T17:13:12.430Z,2.77
2018-06-13T17:15:40.583Z,4.73
2018-06-13T17:18:08.734Z,3.03
2018-06-13T17:20:36.854Z,3.17
2018-06-13T17:23:05.037Z,3.53
2018-06-13T17:25:33.198Z,5.07
2018-06-13T17:28:01.327Z,3.27
2018-06-13T17:30:29.454Z,3.00
2018-06-13T17:32:57.571Z,3.33
2018-06-13T17:35:25.682Z,3.23
2018-06-13T17:37:53.812Z,2.67
2018-06-13T17:40:21.919Z,3.30
2018-06-13T17:42:50.036Z,3.17
2018-06-13T17:45:18.148Z,3.70
2018-06-13T17:47:46.256Z,3.63
2018-06-13T17:50:14.388Z,3.00
2018-06-13T17:52:42.495Z,3.10
2018-06-13T17:55:10.603Z,2.67
2018-06-13T17:57:38.722Z,2.83
2018-06-13T18:00:06.846Z,2.87
2018-06-13T18:02:34.959Z,3.67
2018-06-13T18:05:03.102Z,3.40
2018-06-13T18:07:31.242Z,3.60
2018-06-13T18:09:59.372Z,3.43
2018-06-13T18:12:27.496Z,2.70
2018-06-13T18:14:55.647Z,2.40
2018-06-13T18:17:23.785Z,2.90
2018-06-13T18:19:51.995Z,2.63
2018-06-13T18:22:20.107Z,3.27
2018-06-13T18:24:48.255Z,2.53
2018-06-13T18:27:16.393Z,3.20
2018-06-13T18:29:44.517Z,2.97
2018-06-13T18:32:12.394Z,3.87
2018-06-13T18:34:40.516Z,2.93
2018-06-13T18:37:08.668Z,2.80
2018-06-13T18:39:36.747Z,3.00
2018-06-13T18:42:04.842Z,3.00
2018-06-13T18:44:32.924Z,3.40
2018-06-13T18:47:00.999Z,2.97
2018-06-13T18:49:29.074Z,2.90
2018-06-13T18:51:57.162Z,2.70
2018-06-13T18:54:25.521Z,3.03
2018-06-13T18:56:53.655Z,2.77
2018-06-13T18:59:21.742Z,3.20
2018-06-13T19:01:49.852Z,3.10
2018-06-13T19:04:17.994Z,3.63
2018-06-13T19:06:46.110Z,2.70
2018-06-13T19:09:14.240Z,2.50
2018-06-13T19:11:42.395Z,2.80
2018-06-13T19:14:11.224Z,2.70
2018-06-13T19:16:39.844Z,2.90
2018-06-13T19:19:07.937Z,2.93
2018-06-13T19:21:36.094Z,3.20
2018-06-13T19:24:04.231Z,3.57
2018-06-13T19:26:32.339Z,3.67
2018-06-13T19:29:00.457Z,3.40
2018-06-13T19:31:28.668Z,3.03
2018-06-13T19:33:56.795Z,3.67
2018-06-13T19:36:24.920Z,3.23
2018-06-13T19:38:53.031Z,3.33
2018-06-13T19:41:21.159Z,3.00
2018-06-13T19:43:49.281Z,3.20
2018-06-13T19:46:17.415Z,3.30
2018-06-13T19:48:47.238Z,3.67
2018-06-13T19:51:15.372Z,3.43
2018-06-13T19:53:49.034Z,3.70
2018-06-13T19:56:19.426Z,3.90
2018-06-13T19:58:47.541Z,4.10
2018-06-13T20:01:15.649Z,3.63
2018-06-13T20:03:49.529Z,2.80
2018-06-13T20:06:17.666Z,3.60
2018-06-13T20:08:45.799Z,3.80
2018-06-13T20:11:13.963Z,3.70
2018-06-13T20:13:47.514Z,2.77
2018-06-13T20:16:31.508Z,3.67
2018-06-13T20:19:05.203Z,2.77
2018-06-13T20:21:33.420Z,3.17
2018-06-13T20:24:01.357Z,4.33
2018-06-13T20:26:35.014Z,3.47
2018-06-13T20:30:06.750Z,3.43
2018-06-13T20:32:34.861Z,3.40
2018-06-13T20:35:02.978Z,3.47
2018-06-13T20:37:31.123Z,3.43
2018-06-13T20:39:59.254Z,3.80
2018-06-13T20:42:27.498Z,3.40
2018-06-13T20:44:55.599Z,3.20
2018-06-13T20:47:23.730Z,2.93
2018-06-13T20:49:51.835Z,2.93
2018-06-13T20:52:19.954Z,3.13
2018-06-13T20:54:48.091Z,3.90
2018-06-13T20:57:16.201Z,3.30
2018-06-13T20:59:44.335Z,3.33
2018-06-13T21:02:12.442Z,3.30
2018-06-13T21:04:40.546Z,3.17
2018-06-13T21:07:08.658Z,3.13
2018-06-13T21:09:36.775Z,3.10
2018-06-13T21:12:04.905Z,3.40
2018-06-13T21:14:33.005Z,4.20
2018-06-13T21:17:01.135Z,3.53
2018-06-13T21:19:29.239Z,2.77
2018-06-13T21:21:57.361Z,2.97
2018-06-13T21:24:25.551Z,2.97
2018-06-13T21:26:53.672Z,3.20
2018-06-13T21:29:21.839Z,2.70
2018-06-13T21:31:49.946Z,3.00
2018-06-13T21:34:18.061Z,3.00
2018-06-13T21:36:46.198Z,3.10
2018-06-13T21:39:14.333Z,3.53
2018-06-13T21:41:42.434Z,3.10
2018-06-13T21:44:10.572Z,3.33
2018-06-13T21:46:38.701Z,4.23
2018-06-13T21:49:06.934Z,3.53
2018-06-13T21:51:35.110Z,3.53
2018-06-13T21:54:03.228Z,3.27
2018-06-13T21:56:31.346Z,3.00
2018-06-13T21:58:59.512Z,4.03
2018-06-13T22:01:27.813Z,3.40
2018-06-13T22:03:55.942Z,3.53
2018-06-13T22:06:24.061Z,3.50
2018-06-13T22:08:52.187Z,4.00
2018-06-13T22:11:20.299Z,4.20
2018-06-13T22:13:48.407Z,3.20
2018-06-13T22:16:16.514Z,3.33
2018-06-13T22:18:44.631Z,4.23
2018-06-13T22:21:12.754Z,4.07
2018-06-13T22:23:40.858Z,3.60
2018-06-13T22:26:08.962Z,4.67
2018-06-13T22:28:37.067Z,3.80
2018-06-13T22:31:05.186Z,3.47
2018-06-13T22:33:33.320Z,4.80
2018-06-13T22:36:01.452Z,4.03
2018-06-13T22:38:29.910Z,4.63
2018-06-13T22:40:58.021Z,5.13
2018-06-13T22:43:26.172Z,5.43
2018-06-13T22:45:54.274Z,4.73
2018-06-13T22:48:22.378Z,4.73
2018-06-13T22:50:50.512Z,4.60
2018-06-13T22:53:18.679Z,4.90
2018-06-13T22:55:46.727Z,4.70
2018-06-13T22:58:14.838Z,4.50
2018-06-13T23:00:56.866Z,4.90
2018-06-13T23:03:24.974Z,4.40
2018-06-13T23:05:53.074Z,4.57
2018-06-13T23:08:21.220Z,4.43
2018-06-13T23:10:49.327Z,5.17
2018-06-13T23:13:17.438Z,5.93
2018-06-13T23:15:45.559Z,6.33
2018-06-13T23:18:13.685Z,4.80
2018-06-13T23:20:41.795Z,5.40
2018-06-13T23:23:10.186Z,5.07
2018-06-13T23:25:38.568Z,5.83
2018-06-13T23:28:06.688Z,5.87
2018-06-13T23:30:34.911Z,4.83
2018-06-13T23:33:03.186Z,6.50
2018-06-13T23:35:31.671Z,4.80
2018-06-13T23:37:59.803Z,5.60
2018-06-13T23:40:28.238Z,5.43
2018-06-13T23:42:56.393Z,4.90
2018-06-13T23:45:24.497Z,5.67
2018-06-13T23:47:52.607Z,5.60
2018-06-13T23:50:20.803Z,5.70
2018-06-13T23:52:48.914Z,6.20
2018-06-13T23:55:18.609Z,6.00
2018-06-13T23:57:46.742Z,5.20
